sensor_id;sensor_type;location;lat;lon;timestamp;P1;durP1;ratioP1;P2;durP2;ratioP2
48665;SDS011;34452;50.796;4.994;2023-07-16T00:00:29;13.70;;;3.17;;
48665;SDS011;34452;50.796;4.994;2023-07-16T00:02:54;7.25;;;1.67;;
48665;SDS011;34452;50.796;4.994;2023-07-16T00:05:21;11.55;;;2.53;;
48665;SDS011;34452;50.796;4.994;2023-07-16T00:07:47;12.27;;;2.10;;
48665;SDS011;34452;50.796;4.994;2023-07-16T00:10:13;21.98;;;2.55;;
48665;SDS011;34452;50.796;4.994;2023-07-16T00:12:38;25.33;;;2.35;;
48665;SDS011;34452;50.796;4.994;2023-07-16T00:15:05;12.77;;;2.10;;
48665;SDS011;34452;50.796;4.994;2023-07-16T00:19:57;13.20;;;2.45;;
48665;SDS011;34452;50.796;4.994;2023-07-16T00:22:23;14.02;;;2.53;;
48665;SDS011;34452;50.796;4.994;2023-07-16T00:24:49;16.92;;;2.50;;
48665;SDS011;34452;50.796;4.994;2023-07-16T00:27:15;13.75;;;2.35;;
48665;SDS011;34452;50.796;4.994;2023-07-16T00:29:41;26.60;;;4.57;;
48665;SDS011;34452;50.796;4.994;2023-07-16T00:32:07;19.92;;;2.60;;
48665;SDS011;34452;50.796;4.994;2023-07-16T00:34:33;12.73;;;2.85;;
48665;SDS011;34452;50.796;4.994;2023-07-16T00:36:58;12.70;;;2.58;;
48665;SDS011;34452;50.796;4.994;2023-07-16T00:39:28;15.30;;;2.20;;
48665;SDS011;34452;50.796;4.994;2023-07-16T00:41:54;17.98;;;2.67;;
48665;SDS011;34452;50.796;4.994;2023-07-16T00:44:19;20.63;;;2.50;;
48665;SDS011;34452;50.796;4.994;2023-07-16T00:49:12;22.02;;;2.70;;
48665;SDS011;34452;50.796;4.994;2023-07-16T00:51:37;18.30;;;2.15;;
48665;SDS011;34452;50.796;4.994;2023-07-16T00:54:03;14.35;;;2.58;;
48665;SDS011;34452;50.796;4.994;2023-07-16T00:56:29;14.93;;;2.83;;
48665;SDS011;34452;50.796;4.994;2023-07-16T00:58:56;11.30;;;2.20;;
48665;SDS011;34452;50.796;4.994;2023-07-16T01:01:21;19.85;;;3.45;;
48665;SDS011;34452;50.796;4.994;2023-07-16T01:03:47;18.60;;;3.50;;
48665;SDS011;34452;50.796;4.994;2023-07-16T01:06:14;10.40;;;2.75;;
48665;SDS011;34452;50.796;4.994;2023-07-16T01:08:46;21.00;;;3.30;;
48665;SDS011;34452;50.796;4.994;2023-07-16T01:11:17;19.17;;;3.03;;
48665;SDS011;34452;50.796;4.994;2023-07-16T01:13:43;19.17;;;2.80;;
48665;SDS011;34452;50.796;4.994;2023-07-16T01:16:20;19.67;;;2.53;;
48665;SDS011;34452;50.796;4.994;2023-07-16T01:18:47;18.52;;;2.78;;
48665;SDS011;34452;50.796;4.994;2023-07-16T01:29:30;27.98;;;2.83;;
48665;SDS011;34452;50.796;4.994;2023-07-16T01:32:00;18.67;;;3.17;;
48665;SDS011;34452;50.796;4.994;2023-07-16T01:34:29;25.23;;;2.53;;
48665;SDS011;34452;50.796;4.994;2023-07-16T01:36:58;12.82;;;2.40;;
48665;SDS011;34452;50.796;4.994;2023-07-16T01:39:26;19.55;;;2.28;;
48665;SDS011;34452;50.796;4.994;2023-07-16T01:41:52;14.80;;;2.53;;
48665;SDS011;34452;50.796;4.994;2023-07-16T01:44:17;11.45;;;2.65;;
48665;SDS011;34452;50.796;4.994;2023-07-16T01:46:43;17.00;;;2.72;;
48665;SDS011;34452;50.796;4.994;2023-07-16T01:49:09;26.55;;;2.63;;
48665;SDS011;34452;50.796;4.994;2023-07-16T01:51:35;13.43;;;2.35;;
48665;SDS011;34452;50.796;4.994;2023-07-16T01:54:00;22.67;;;2.65;;
48665;SDS011;34452;50.796;4.994;2023-07-16T01:56:26;20.33;;;2.38;;
48665;SDS011;34452;50.796;4.994;2023-07-16T01:58:52;18.50;;;2.47;;
48665;SDS011;34452;50.796;4.994;2023-07-16T02:01:17;17.70;;;2.97;;
48665;SDS011;34452;50.796;4.994;2023-07-16T02:03:43;14.40;;;2.90;;
48665;SDS011;34452;50.796;4.994;2023-07-16T02:06:09;16.83;;;2.20;;
48665;SDS011;34452;50.796;4.994;2023-07-16T02:08:34;23.73;;;4.32;;
48665;SDS011;34452;50.796;4.994;2023-07-16T02:11:00;22.15;;;3.60;;
48665;SDS011;34452;50.796;4.994;2023-07-16T02:13:27;13.57;;;2.17;;
48665;SDS011;34452;50.796;4.994;2023-07-16T02:15:52;25.77;;;2.65;;
48665;SDS011;34452;50.796;4.994;2023-07-16T02:18:18;24.05;;;4.30;;
48665;SDS011;34452;50.796;4.994;2023-07-16T02:20:44;14.43;;;2.70;;
48665;SDS011;34452;50.796;4.994;2023-07-16T02:23:10;24.02;;;3.40;;
48665;SDS011;34452;50.796;4.994;2023-07-16T02:25:35;15.60;;;2.60;;
48665;SDS011;34452;50.796;4.994;2023-07-16T02:28:01;18.63;;;3.33;;
48665;SDS011;34452;50.796;4.994;2023-07-16T02:30:27;25.55;;;2.80;;
48665;SDS011;34452;50.796;4.994;2023-07-16T02:32:53;23.05;;;3.05;;
48665;SDS011;34452;50.796;4.994;2023-07-16T02:35:19;17.38;;;3.20;;
48665;SDS011;34452;50.796;4.994;2023-07-16T02:37:45;21.73;;;3.50;;
48665;SDS011;34452;50.796;4.994;2023-07-16T02:40:10;18.45;;;2.90;;
48665;SDS011;34452;50.796;4.994;2023-07-16T02:42:36;25.40;;;3.60;;
48665;SDS011;34452;50.796;4.994;2023-07-16T02:45:02;7.53;;;2.58;;
48665;SDS011;34452;50.796;4.994;2023-07-16T02:47:28;14.95;;;3.33;;
48665;SDS011;34452;50.796;4.994;2023-07-16T02:49:54;26.42;;;3.45;;
48665;SDS011;34452;50.796;4.994;2023-07-16T02:52:19;25.50;;;3.43;;
48665;SDS011;34452;50.796;4.994;2023-07-16T02:57:11;9.57;;;2.75;;
48665;SDS011;34452;50.796;4.994;2023-07-16T02:59:37;17.23;;;2.95;;
48665;SDS011;34452;50.796;4.994;2023-07-16T03:02:03;24.58;;;3.58;;
48665;SDS011;34452;50.796;4.994;2023-07-16T03:04:28;20.25;;;3.47;;
48665;SDS011;34452;50.796;4.994;2023-07-16T03:06:54;22.87;;;3.37;;
48665;SDS011;34452;50.796;4.994;2023-07-16T03:09:20;18.13;;;3.87;;
48665;SDS011;34452;50.796;4.994;2023-07-16T03:11:45;17.77;;;3.57;;
48665;SDS011;34452;50.796;4.994;2023-07-16T03:14:11;8.20;;;3.83;;
48665;SDS011;34452;50.796;4.994;2023-07-16T03:16:37;17.83;;;4.05;;
48665;SDS011;34452;50.796;4.994;2023-07-16T03:19:02;29.08;;;3.60;;
48665;SDS011;34452;50.796;4.994;2023-07-16T03:21:28;12.02;;;3.55;;
48665;SDS011;34452;50.796;4.994;2023-07-16T03:23:54;19.27;;;3.42;;
48665;SDS011;34452;50.796;4.994;2023-07-16T03:26:19;15.60;;;5.07;;
48665;SDS011;34452;50.796;4.994;2023-07-16T03:28:45;20.03;;;4.40;;
48665;SDS011;34452;50.796;4.994;2023-07-16T03:31:11;20.20;;;3.47;;
48665;SDS011;34452;50.796;4.994;2023-07-16T03:33:36;22.07;;;3.30;;
48665;SDS011;34452;50.796;4.994;2023-07-16T03:36:02;15.93;;;3.37;;
48665;SDS011;34452;50.796;4.994;2023-07-16T03:38:28;14.43;;;3.50;;
48665;SDS011;34452;50.796;4.994;2023-07-16T03:40:53;17.08;;;3.83;;
48665;SDS011;34452;50.796;4.994;2023-07-16T03:43:19;10.90;;;3.88;;
48665;SDS011;34452;50.796;4.994;2023-07-16T03:45:45;12.05;;;3.50;;
48665;SDS011;34452;50.796;4.994;2023-07-16T03:48:11;15.70;;;3.70;;
48665;SDS011;34452;50.796;4.994;2023-07-16T03:50:36;15.63;;;3.30;;
48665;SDS011;34452;50.796;4.994;2023-07-16T03:53:02;17.20;;;3.40;;
48665;SDS011;34452;50.796;4.994;2023-07-16T03:55:28;17.60;;;3.88;;
48665;SDS011;34452;50.796;4.994;2023-07-16T04:00:20;24.25;;;3.83;;
48665;SDS011;34452;50.796;4.994;2023-07-16T04:02:45;25.90;;;4.17;;
48665;SDS011;34452;50.796;4.994;2023-07-16T04:05:11;17.58;;;3.97;;
48665;SDS011;34452;50.796;4.994;2023-07-16T04:07:37;16.10;;;3.67;;
48665;SDS011;34452;50.796;4.994;2023-07-16T04:10:03;18.70;;;3.53;;
48665;SDS011;34452;50.796;4.994;2023-07-16T04:12:29;19.42;;;4.35;;
48665;SDS011;34452;50.796;4.994;2023-07-16T04:14:56;16.63;;;3.55;;
48665;SDS011;34452;50.796;4.994;2023-07-16T04:17:23;14.38;;;4.13;;
48665;SDS011;34452;50.796;4.994;2023-07-16T04:19:49;22.80;;;3.90;;
48665;SDS011;34452;50.796;4.994;2023-07-16T04:22:15;9.40;;;3.38;;
48665;SDS011;34452;50.796;4.994;2023-07-16T04:24:41;18.67;;;4.07;;
48665;SDS011;34452;50.796;4.994;2023-07-16T04:27:06;13.77;;;4.07;;
48665;SDS011;34452;50.796;4.994;2023-07-16T04:29:32;16.42;;;4.22;;
48665;SDS011;34452;50.796;4.994;2023-07-16T04:31:58;23.05;;;4.45;;
48665;SDS011;34452;50.796;4.994;2023-07-16T04:34:23;17.83;;;3.90;;
48665;SDS011;34452;50.796;4.994;2023-07-16T04:36:49;16.33;;;4.30;;
48665;SDS011;34452;50.796;4.994;2023-07-16T04:39:15;13.80;;;3.63;;
48665;SDS011;34452;50.796;4.994;2023-07-16T04:41:41;21.42;;;4.28;;
48665;SDS011;34452;50.796;4.994;2023-07-16T04:44:06;24.73;;;4.35;;
48665;SDS011;34452;50.796;4.994;2023-07-16T04:46:32;16.77;;;4.20;;
48665;SDS011;34452;50.796;4.994;2023-07-16T04:48:58;10.40;;;3.30;;
48665;SDS011;34452;50.796;4.994;2023-07-16T04:51:24;16.67;;;4.60;;
48665;SDS011;34452;50.796;4.994;2023-07-16T04:53:50;19.58;;;5.00;;
48665;SDS011;34452;50.796;4.994;2023-07-16T04:56:16;13.38;;;4.72;;
48665;SDS011;34452;50.796;4.994;2023-07-16T04:58:42;18.42;;;4.05;;
48665;SDS011;34452;50.796;4.994;2023-07-16T05:01:08;10.48;;;4.15;;
48665;SDS011;34452;50.796;4.994;2023-07-16T05:06:00;22.00;;;5.00;;
48665;SDS011;34452;50.796;4.994;2023-07-16T05:08:26;12.88;;;4.22;;
48665;SDS011;34452;50.796;4.994;2023-07-16T05:10:52;19.87;;;5.43;;
48665;SDS011;34452;50.796;4.994;2023-07-16T05:13:17;16.40;;;4.28;;
48665;SDS011;34452;50.796;4.994;2023-07-16T05:15:43;13.23;;;4.18;;
48665;SDS011;34452;50.796;4.994;2023-07-16T05:18:09;15.48;;;4.90;;
48665;SDS011;34452;50.796;4.994;2023-07-16T05:20:35;18.17;;;5.38;;
48665;SDS011;34452;50.796;4.994;2023-07-16T05:23:01;16.05;;;4.97;;
48665;SDS011;34452;50.796;4.994;2023-07-16T05:25:27;17.55;;;5.05;;
48665;SDS011;34452;50.796;4.994;2023-07-16T05:27:53;11.70;;;4.93;;
48665;SDS011;34452;50.796;4.994;2023-07-16T05:30:18;17.27;;;4.67;;
48665;SDS011;34452;50.796;4.994;2023-07-16T05:32:44;14.15;;;4.53;;
48665;SDS011;34452;50.796;4.994;2023-07-16T05:35:10;18.73;;;5.00;;
48665;SDS011;34452;50.796;4.994;2023-07-16T05:37:36;20.77;;;5.13;;
48665;SDS011;34452;50.796;4.994;2023-07-16T05:40:02;17.05;;;4.68;;
48665;SDS011;34452;50.796;4.994;2023-07-16T05:42:28;14.82;;;5.00;;
48665;SDS011;34452;50.796;4.994;2023-07-16T05:44:54;17.88;;;5.30;;
48665;SDS011;34452;50.796;4.994;2023-07-16T05:47:20;13.98;;;5.60;;
48665;SDS011;34452;50.796;4.994;2023-07-16T05:49:46;19.23;;;4.75;;
48665;SDS011;34452;50.796;4.994;2023-07-16T05:52:11;12.45;;;4.47;;
48665;SDS011;34452;50.796;4.994;2023-07-16T05:54:37;19.80;;;5.15;;
48665;SDS011;34452;50.796;4.994;2023-07-16T05:57:03;18.05;;;5.13;;
48665;SDS011;34452;50.796;4.994;2023-07-16T05:59:29;18.20;;;5.43;;
48665;SDS011;34452;50.796;4.994;2023-07-16T06:01:54;18.67;;;6.03;;
48665;SDS011;34452;50.796;4.994;2023-07-16T06:04:22;14.80;;;5.28;;
48665;SDS011;34452;50.796;4.994;2023-07-16T06:06:48;19.88;;;5.47;;
48665;SDS011;34452;50.796;4.994;2023-07-16T06:09:14;15.48;;;4.90;;
48665;SDS011;34452;50.796;4.994;2023-07-16T06:11:40;19.80;;;5.50;;
48665;SDS011;34452;50.796;4.994;2023-07-16T06:14:05;11.00;;;5.35;;
48665;SDS011;34452;50.796;4.994;2023-07-16T06:16:31;12.73;;;5.45;;
48665;SDS011;34452;50.796;4.994;2023-07-16T06:18:57;17.20;;;5.70;;
48665;SDS011;34452;50.796;4.994;2023-07-16T06:21:22;16.73;;;5.78;;
48665;SDS011;34452;50.796;4.994;2023-07-16T06:23:48;21.98;;;5.93;;
48665;SDS011;34452;50.796;4.994;2023-07-16T06:26:14;14.57;;;5.25;;
48665;SDS011;34452;50.796;4.994;2023-07-16T06:28:39;16.52;;;5.68;;
48665;SDS011;34452;50.796;4.994;2023-07-16T06:31:05;14.05;;;5.75;;
48665;SDS011;34452;50.796;4.994;2023-07-16T06:33:31;17.23;;;5.35;;
48665;SDS011;34452;50.796;4.994;2023-07-16T06:35:56;16.90;;;5.88;;
48665;SDS011;34452;50.796;4.994;2023-07-16T06:38:22;15.88;;;5.93;;
48665;SDS011;34452;50.796;4.994;2023-07-16T06:40:48;12.30;;;5.25;;
48665;SDS011;34452;50.796;4.994;2023-07-16T06:43:15;19.10;;;5.63;;
48665;SDS011;34452;50.796;4.994;2023-07-16T06:45:41;20.92;;;6.90;;
48665;SDS011;34452;50.796;4.994;2023-07-16T06:48:07;20.17;;;5.30;;
48665;SDS011;34452;50.796;4.994;2023-07-16T06:50:33;18.05;;;5.57;;
48665;SDS011;34452;50.796;4.994;2023-07-16T06:52:59;22.95;;;6.28;;
48665;SDS011;34452;50.796;4.994;2023-07-16T06:55:24;19.30;;;6.22;;
48665;SDS011;34452;50.796;4.994;2023-07-16T06:57:50;15.52;;;6.43;;
48665;SDS011;34452;50.796;4.994;2023-07-16T07:00:16;19.85;;;5.53;;
48665;SDS011;34452;50.796;4.994;2023-07-16T07:02:42;22.30;;;6.53;;
48665;SDS011;34452;50.796;4.994;2023-07-16T07:05:07;18.35;;;5.78;;
48665;SDS011;34452;50.796;4.994;2023-07-16T07:07:33;20.10;;;5.78;;
48665;SDS011;34452;50.796;4.994;2023-07-16T07:09:59;19.90;;;5.63;;
48665;SDS011;34452;50.796;4.994;2023-07-16T07:12:25;16.48;;;5.10;;
48665;SDS011;34452;50.796;4.994;2023-07-16T07:14:50;18.10;;;5.43;;
48665;SDS011;34452;50.796;4.994;2023-07-16T07:17:16;14.20;;;4.93;;
48665;SDS011;34452;50.796;4.994;2023-07-16T07:19:42;15.70;;;5.28;;
48665;SDS011;34452;50.796;4.994;2023-07-16T07:24:34;11.68;;;5.15;;
48665;SDS011;34452;50.796;4.994;2023-07-16T07:26:59;18.60;;;5.40;;
48665;SDS011;34452;50.796;4.994;2023-07-16T07:29:25;16.60;;;5.57;;
48665;SDS011;34452;50.796;4.994;2023-07-16T07:31:52;12.63;;;5.00;;
48665;SDS011;34452;50.796;4.994;2023-07-16T07:34:18;18.25;;;5.28;;
48665;SDS011;34452;50.796;4.994;2023-07-16T07:36:44;18.58;;;6.32;;
48665;SDS011;34452;50.796;4.994;2023-07-16T07:39:10;17.38;;;5.70;;
48665;SDS011;34452;50.796;4.994;2023-07-16T07:41:38;23.25;;;5.75;;
48665;SDS011;34452;50.796;4.994;2023-07-16T07:44:04;13.25;;;5.53;;
48665;SDS011;34452;50.796;4.994;2023-07-16T07:46:29;13.18;;;5.28;;
48665;SDS011;34452;50.796;4.994;2023-07-16T07:48:55;18.38;;;6.20;;
48665;SDS011;34452;50.796;4.994;2023-07-16T07:51:21;19.70;;;5.78;;
48665;SDS011;34452;50.796;4.994;2023-07-16T07:53:47;18.05;;;5.63;;
48665;SDS011;34452;50.796;4.994;2023-07-16T07:56:13;16.95;;;5.07;;
48665;SDS011;34452;50.796;4.994;2023-07-16T07:58:39;14.50;;;5.72;;
48665;SDS011;34452;50.796;4.994;2023-07-16T08:01:06;16.08;;;5.45;;
48665;SDS011;34452;50.796;4.994;2023-07-16T08:03:32;15.27;;;5.40;;
48665;SDS011;34452;50.796;4.994;2023-07-16T08:08:24;14.35;;;4.10;;
48665;SDS011;34452;50.796;4.994;2023-07-16T08:10:50;15.20;;;5.50;;
48665;SDS011;34452;50.796;4.994;2023-07-16T08:13:15;14.27;;;5.07;;
48665;SDS011;34452;50.796;4.994;2023-07-16T08:15:41;14.88;;;5.00;;
48665;SDS011;34452;50.796;4.994;2023-07-16T08:18:07;13.95;;;4.65;;
48665;SDS011;34452;50.796;4.994;2023-07-16T08:23:00;17.92;;;4.53;;
48665;SDS011;34452;50.796;4.994;2023-07-16T08:25:26;12.15;;;4.15;;
48665;SDS011;34452;50.796;4.994;2023-07-16T08:27:52;13.60;;;4.18;;
48665;SDS011;34452;50.796;4.994;2023-07-16T08:30:17;15.77;;;4.40;;
48665;SDS011;34452;50.796;4.994;2023-07-16T08:32:43;21.27;;;5.45;;
48665;SDS011;34452;50.796;4.994;2023-07-16T08:35:09;13.93;;;4.53;;
48665;SDS011;34452;50.796;4.994;2023-07-16T08:37:41;16.75;;;4.55;;
48665;SDS011;34452;50.796;4.994;2023-07-16T08:40:08;13.20;;;4.38;;
48665;SDS011;34452;50.796;4.994;2023-07-16T08:42:36;12.40;;;4.00;;
48665;SDS011;34452;50.796;4.994;2023-07-16T08:45:03;16.77;;;3.97;;
48665;SDS011;34452;50.796;4.994;2023-07-16T08:47:48;10.50;;;3.53;;
48665;SDS011;34452;50.796;4.994;2023-07-16T08:50:14;13.43;;;3.63;;
48665;SDS011;34452;50.796;4.994;2023-07-16T08:52:41;9.02;;;3.17;;
48665;SDS011;34452;50.796;4.994;2023-07-16T08:55:08;8.70;;;3.10;;
48665;SDS011;34452;50.796;4.994;2023-07-16T08:57:34;11.02;;;4.25;;
48665;SDS011;34452;50.796;4.994;2023-07-16T09:00:01;11.40;;;3.45;;
48665;SDS011;34452;50.796;4.994;2023-07-16T09:04:53;6.88;;;3.35;;
48665;SDS011;34452;50.796;4.994;2023-07-16T09:07:19;9.52;;;2.88;;
48665;SDS011;34452;50.796;4.994;2023-07-16T09:09:54;10.43;;;3.00;;
48665;SDS011;34452;50.796;4.994;2023-07-16T09:12:23;10.60;;;3.28;;
48665;SDS011;34452;50.796;4.994;2023-07-16T09:17:19;10.77;;;3.25;;
48665;SDS011;34452;50.796;4.994;2023-07-16T09:20:03;13.35;;;3.40;;
48665;SDS011;34452;50.796;4.994;2023-07-16T09:24:54;10.15;;;2.90;;
48665;SDS011;34452;50.796;4.994;2023-07-16T09:27:27;19.55;;;2.60;;
48665;SDS011;34452;50.796;4.994;2023-07-16T09:29:53;7.78;;;2.65;;
48665;SDS011;34452;50.796;4.994;2023-07-16T09:32:19;8.73;;;2.75;;
48665;SDS011;34452;50.796;4.994;2023-07-16T09:34:48;9.27;;;2.80;;
48665;SDS011;34452;50.796;4.994;2023-07-16T09:37:15;7.30;;;2.40;;
48665;SDS011;34452;50.796;4.994;2023-07-16T09:39:43;8.93;;;2.50;;
48665;SDS011;34452;50.796;4.994;2023-07-16T09:42:11;12.10;;;2.65;;
48665;SDS011;34452;50.796;4.994;2023-07-16T09:44:38;6.05;;;2.58;;
48665;SDS011;34452;50.796;4.994;2023-07-16T09:47:06;11.13;;;3.15;;
48665;SDS011;34452;50.796;4.994;2023-07-16T09:49:32;6.78;;;4.20;;
48665;SDS011;34452;50.796;4.994;2023-07-16T09:51:58;6.53;;;2.38;;
48665;SDS011;34452;50.796;4.994;2023-07-16T09:54:26;8.88;;;4.53;;
48665;SDS011;34452;50.796;4.994;2023-07-16T09:56:57;8.30;;;3.53;;
48665;SDS011;34452;50.796;4.994;2023-07-16T09:59:27;7.45;;;2.78;;
48665;SDS011;34452;50.796;4.994;2023-07-16T10:01:55;9.93;;;2.97;;
48665;SDS011;34452;50.796;4.994;2023-07-16T10:04:22;10.15;;;3.40;;
48665;SDS011;34452;50.796;4.994;2023-07-16T10:06:48;10.40;;;3.17;;
48665;SDS011;34452;50.796;4.994;2023-07-16T10:09:31;13.35;;;3.58;;
48665;SDS011;34452;50.796;4.994;2023-07-16T10:17:22;8.73;;;2.58;;
48665;SDS011;34452;50.796;4.994;2023-07-16T10:19:50;7.68;;;3.10;;
48665;SDS011;34452;50.796;4.994;2023-07-16T10:22:36;6.97;;;3.20;;
48665;SDS011;34452;50.796;4.994;2023-07-16T10:25:23;6.32;;;3.17;;
48665;SDS011;34452;50.796;4.994;2023-07-16T10:27:50;8.02;;;3.28;;
48665;SDS011;34452;50.796;4.994;2023-07-16T10:30:17;14.80;;;3.33;;
48665;SDS011;34452;50.796;4.994;2023-07-16T10:32:44;9.35;;;3.10;;
48665;SDS011;34452;50.796;4.994;2023-07-16T10:35:11;11.13;;;3.42;;
48665;SDS011;34452;50.796;4.994;2023-07-16T10:37:38;5.65;;;2.95;;
48665;SDS011;34452;50.796;4.994;2023-07-16T10:40:04;11.63;;;3.10;;
48665;SDS011;34452;50.796;4.994;2023-07-16T10:42:34;10.30;;;3.13;;
48665;SDS011;34452;50.796;4.994;2023-07-16T10:45:00;8.43;;;2.88;;
48665;SDS011;34452;50.796;4.994;2023-07-16T10:47:50;7.50;;;3.15;;
48665;SDS011;34452;50.796;4.994;2023-07-16T10:50:19;7.55;;;3.20;;
48665;SDS011;34452;50.796;4.994;2023-07-16T10:52:50;8.25;;;2.83;;
48665;SDS011;34452;50.796;4.994;2023-07-16T10:55:17;7.95;;;2.90;;
48665;SDS011;34452;50.796;4.994;2023-07-16T10:57:43;8.18;;;3.15;;
48665;SDS011;34452;50.796;4.994;2023-07-16T11:00:10;9.23;;;3.08;;
48665;SDS011;34452;50.796;4.994;2023-07-16T11:05:05;10.45;;;3.25;;
48665;SDS011;34452;50.796;4.994;2023-07-16T11:07:34;10.23;;;3.03;;
48665;SDS011;34452;50.796;4.994;2023-07-16T11:09:59;7.45;;;3.55;;
48665;SDS011;34452;50.796;4.994;2023-07-16T11:12:27;10.18;;;3.33;;
48665;SDS011;34452;50.796;4.994;2023-07-16T11:14:54;8.57;;;3.08;;
48665;SDS011;34452;50.796;4.994;2023-07-16T11:17:21;8.98;;;3.33;;
48665;SDS011;34452;50.796;4.994;2023-07-16T11:19:50;11.98;;;3.05;;
48665;SDS011;34452;50.796;4.994;2023-07-16T11:22:17;7.47;;;2.85;;
48665;SDS011;34452;50.796;4.994;2023-07-16T11:29:52;9.93;;;2.92;;
48665;SDS011;34452;50.796;4.994;2023-07-16T11:35:22;5.32;;;3.03;;
48665;SDS011;34452;50.796;4.994;2023-07-16T11:37:48;5.82;;;2.72;;
48665;SDS011;34452;50.796;4.994;2023-07-16T11:40:15;9.55;;;2.80;;
48665;SDS011;34452;50.796;4.994;2023-07-16T11:42:41;6.38;;;2.58;;
48665;SDS011;34452;50.796;4.994;2023-07-16T11:47:51;7.53;;;2.92;;
48665;SDS011;34452;50.796;4.994;2023-07-16T11:52:43;7.18;;;3.00;;
48665;SDS011;34452;50.796;4.994;2023-07-16T11:55:18;8.40;;;2.95;;
48665;SDS011;34452;50.796;4.994;2023-07-16T11:57:44;10.50;;;2.72;;
48665;SDS011;34452;50.796;4.994;2023-07-16T12:00:10;6.80;;;2.78;;
48665;SDS011;34452;50.796;4.994;2023-07-16T12:02:37;5.82;;;2.80;;
48665;SDS011;34452;50.796;4.994;2023-07-16T12:05:03;9.70;;;2.72;;
48665;SDS011;34452;50.796;4.994;2023-07-16T12:07:39;7.85;;;2.92;;
48665;SDS011;34452;50.796;4.994;2023-07-16T12:10:06;11.07;;;2.78;;
48665;SDS011;34452;50.796;4.994;2023-07-16T12:12:33;6.53;;;2.70;;
48665;SDS011;34452;50.796;4.994;2023-07-16T12:15:03;6.80;;;2.45;;
48665;SDS011;34452;50.796;4.994;2023-07-16T12:17:29;10.63;;;2.42;;
48665;SDS011;34452;50.796;4.994;2023-07-16T12:19:55;7.10;;;2.75;;
48665;SDS011;34452;50.796;4.994;2023-07-16T12:22:20;10.93;;;3.05;;
48665;SDS011;34452;50.796;4.994;2023-07-16T12:24:48;5.85;;;2.63;;
48665;SDS011;34452;50.796;4.994;2023-07-16T12:27:14;9.57;;;2.45;;
48665;SDS011;34452;50.796;4.994;2023-07-16T12:29:41;8.20;;;3.03;;
48665;SDS011;34452;50.796;4.994;2023-07-16T12:34:33;6.47;;;2.17;;
48665;SDS011;34452;50.796;4.994;2023-07-16T12:36:59;7.07;;;2.72;;
48665;SDS011;34452;50.796;4.994;2023-07-16T12:39:25;5.10;;;2.38;;
48665;SDS011;34452;50.796;4.994;2023-07-16T12:41:50;6.57;;;2.35;;
48665;SDS011;34452;50.796;4.994;2023-07-16T12:44:16;7.70;;;2.60;;
48665;SDS011;34452;50.796;4.994;2023-07-16T12:46:42;7.88;;;2.60;;
48665;SDS011;34452;50.796;4.994;2023-07-16T12:49:08;7.05;;;2.05;;
48665;SDS011;34452;50.796;4.994;2023-07-16T12:51:33;10.52;;;2.35;;
48665;SDS011;34452;50.796;4.994;2023-07-16T12:53:59;6.82;;;2.15;;
48665;SDS011;34452;50.796;4.994;2023-07-16T12:56:26;6.30;;;2.42;;
48665;SDS011;34452;50.796;4.994;2023-07-16T13:01:17;5.90;;;2.10;;
48665;SDS011;34452;50.796;4.994;2023-07-16T13:03:43;5.07;;;2.38;;
48665;SDS011;34452;50.796;4.994;2023-07-16T13:06:08;7.50;;;2.20;;
48665;SDS011;34452;50.796;4.994;2023-07-16T13:08:34;5.20;;;2.00;;
48665;SDS011;34452;50.796;4.994;2023-07-16T13:11:00;4.75;;;2.10;;
48665;SDS011;34452;50.796;4.994;2023-07-16T13:13:26;7.60;;;2.00;;
48665;SDS011;34452;50.796;4.994;2023-07-16T13:15:52;4.85;;;1.98;;
48665;SDS011;34452;50.796;4.994;2023-07-16T13:18:18;6.40;;;2.15;;
48665;SDS011;34452;50.796;4.994;2023-07-16T13:20:44;11.18;;;2.53;;
48665;SDS011;34452;50.796;4.994;2023-07-16T13:25:35;11.07;;;2.42;;
48665;SDS011;34452;50.796;4.994;2023-07-16T13:28:03;5.57;;;2.65;;
48665;SDS011;34452;50.796;4.994;2023-07-16T13:30:30;8.35;;;2.15;;
48665;SDS011;34452;50.796;4.994;2023-07-16T13:32:55;6.63;;;2.33;;
48665;SDS011;34452;50.796;4.994;2023-07-16T13:37:47;7.82;;;2.33;;
48665;SDS011;34452;50.796;4.994;2023-07-16T13:40:13;3.95;;;1.75;;
48665;SDS011;34452;50.796;4.994;2023-07-16T13:42:39;12.80;;;2.33;;
48665;SDS011;34452;50.796;4.994;2023-07-16T13:45:05;4.32;;;2.30;;
48665;SDS011;34452;50.796;4.994;2023-07-16T13:47:31;4.72;;;2.10;;
48665;SDS011;34452;50.796;4.994;2023-07-16T13:49:58;4.45;;;1.80;;
48665;SDS011;34452;50.796;4.994;2023-07-16T13:52:24;3.75;;;1.80;;
48665;SDS011;34452;50.796;4.994;2023-07-16T13:54:50;5.30;;;2.08;;
48665;SDS011;34452;50.796;4.994;2023-07-16T13:57:15;4.82;;;1.98;;
48665;SDS011;34452;50.796;4.994;2023-07-16T13:59:41;5.05;;;1.80;;
48665;SDS011;34452;50.796;4.994;2023-07-16T14:02:07;11.85;;;2.00;;
48665;SDS011;34452;50.796;4.994;2023-07-16T14:04:33;3.90;;;2.15;;
48665;SDS011;34452;50.796;4.994;2023-07-16T14:06:59;4.60;;;1.70;;
48665;SDS011;34452;50.796;4.994;2023-07-16T14:09:25;4.60;;;1.88;;
48665;SDS011;34452;50.796;4.994;2023-07-16T14:11:51;3.75;;;2.28;;
48665;SDS011;34452;50.796;4.994;2023-07-16T14:14:17;5.07;;;2.40;;
48665;SDS011;34452;50.796;4.994;2023-07-16T14:16:43;4.78;;;2.13;;
48665;SDS011;34452;50.796;4.994;2023-07-16T14:19:09;6.22;;;2.30;;
48665;SDS011;34452;50.796;4.994;2023-07-16T14:21:37;5.05;;;2.10;;
48665;SDS011;34452;50.796;4.994;2023-07-16T14:24:03;5.85;;;2.50;;
48665;SDS011;34452;50.796;4.994;2023-07-16T14:28:55;7.55;;;2.60;;
48665;SDS011;34452;50.796;4.994;2023-07-16T14:31:21;7.38;;;2.65;;
48665;SDS011;34452;50.796;4.994;2023-07-16T14:33:46;5.60;;;2.47;;
48665;SDS011;34452;50.796;4.994;2023-07-16T14:36:12;5.70;;;2.70;;
48665;SDS011;34452;50.796;4.994;2023-07-16T14:38:38;10.75;;;3.15;;
48665;SDS011;34452;50.796;4.994;2023-07-16T14:41:04;7.10;;;2.55;;
48665;SDS011;34452;50.796;4.994;2023-07-16T14:43:32;6.03;;;2.50;;
48665;SDS011;34452;50.796;4.994;2023-07-16T14:45:58;4.85;;;2.00;;
48665;SDS011;34452;50.796;4.994;2023-07-16T14:48:24;9.07;;;2.97;;
48665;SDS011;34452;50.796;4.994;2023-07-16T14:50:52;5.85;;;2.25;;
48665;SDS011;34452;50.796;4.994;2023-07-16T14:53:18;5.07;;;2.65;;
48665;SDS011;34452;50.796;4.994;2023-07-16T14:55:46;5.05;;;2.33;;
48665;SDS011;34452;50.796;4.994;2023-07-16T14:58:13;7.20;;;2.22;;
48665;SDS011;34452;50.796;4.994;2023-07-16T15:00:39;9.23;;;2.70;;
48665;SDS011;34452;50.796;4.994;2023-07-16T15:03:05;3.67;;;2.40;;
48665;SDS011;34452;50.796;4.994;2023-07-16T15:05:31;12.75;;;2.70;;
48665;SDS011;34452;50.796;4.994;2023-07-16T15:07:56;7.57;;;2.65;;
48665;SDS011;34452;50.796;4.994;2023-07-16T15:10:22;7.00;;;2.78;;
48665;SDS011;34452;50.796;4.994;2023-07-16T15:12:48;6.53;;;2.65;;
48665;SDS011;34452;50.796;4.994;2023-07-16T15:15:13;7.10;;;2.40;;
48665;SDS011;34452;50.796;4.994;2023-07-16T15:17:39;9.35;;;2.85;;
48665;SDS011;34452;50.796;4.994;2023-07-16T15:22:31;10.85;;;2.60;;
48665;SDS011;34452;50.796;4.994;2023-07-16T15:24:58;4.95;;;2.45;;
48665;SDS011;34452;50.796;4.994;2023-07-16T15:27:25;12.38;;;2.95;;
48665;SDS011;34452;50.796;4.994;2023-07-16T15:32:17;6.88;;;2.63;;
48665;SDS011;34452;50.796;4.994;2023-07-16T15:34:43;7.20;;;2.50;;
48665;SDS011;34452;50.796;4.994;2023-07-16T15:37:08;10.63;;;2.20;;
48665;SDS011;34452;50.796;4.994;2023-07-16T15:39:34;7.10;;;2.92;;
48665;SDS011;34452;50.796;4.994;2023-07-16T15:42:00;6.63;;;3.17;;
48665;SDS011;34452;50.796;4.994;2023-07-16T15:44:26;10.02;;;2.88;;
48665;SDS011;34452;50.796;4.994;2023-07-16T15:46:52;7.68;;;2.88;;